createdAt,value
2019-01-29T00:00:21.803Z,4.97
2019-01-29T00:02:51.652Z,5.97
2019-01-29T00:05:20.185Z,5.53
2019-01-29T00:07:48.753Z,4.77
2019-01-29T00:10:17.394Z,4.87
2019-01-29T00:12:45.962Z,5.23
2019-01-29T00:15:14.789Z,5.33
2019-01-29T00:17:43.370Z,5.03
2019-01-29T00:20:12.333Z,5.77
2019-01-29T00:22:40.919Z,5.43
2019-01-29T00:25:10.421Z,4.90
2019-01-29T00:27:39.154Z,5.07
2019-01-29T00:30:10.885Z,5.07
2019-01-29T00:32:39.530Z,5.50
2019-01-29T00:35:08.334Z,5.37
2019-01-29T00:37:37.090Z,5.30
2019-01-29T00:40:08.871Z,5.00
2019-01-29T00:42:37.445Z,5.07
2019-01-29T00:45:09.166Z,5.63
2019-01-29T00:47:37.742Z,5.07
2019-01-29T00:50:08.959Z,5.40
2019-01-29T00:52:42.191Z,5.60
2019-01-29T00:55:11.130Z,4.90
2019-01-29T00:57:39.766Z,5.37
2019-01-29T01:00:11.418Z,5.03
2019-01-29T01:02:40.066Z,5.20
2019-01-29T01:05:09.058Z,4.97
2019-01-29T01:07:37.689Z,4.47
2019-01-29T01:10:09.466Z,5.50
2019-01-29T01:12:38.103Z,5.57
2019-01-29T01:15:09.505Z,5.63
2019-01-29T01:17:38.153Z,6.33
2019-01-29T01:20:09.881Z,5.97
2019-01-29T01:22:38.622Z,5.87
2019-01-29T01:25:09.099Z,6.70
2019-01-29T01:27:37.681Z,7.73
2019-01-29T01:30:12.362Z,7.27
2019-01-29T01:32:40.957Z,8.07
2019-01-29T01:35:09.774Z,9.07
2019-01-29T01:37:38.493Z,11.47
2019-01-29T01:40:13.358Z,13.43
2019-01-29T01:42:41.993Z,13.63
2019-01-29T01:45:11.818Z,14.47
2019-01-29T01:47:40.465Z,13.93
2019-01-29T01:50:11.293Z,15.47
2019-01-29T01:52:39.873Z,14.00
2019-01-29T01:55:11.469Z,13.67
2019-01-29T01:57:40.122Z,13.77
2019-01-29T02:00:11.841Z,13.90
2019-01-29T02:02:40.561Z,13.27
2019-01-29T02:05:09.574Z,13.57
2019-01-29T02:07:38.294Z,12.93
2019-01-29T02:10:09.989Z,12.43
2019-01-29T02:12:38.578Z,12.33
2019-01-29T02:15:09.589Z,12.77
2019-01-29T02:17:38.246Z,12.23
2019-01-29T02:20:10.299Z,11.97
2019-01-29T02:22:39.105Z,11.73
2019-01-29T02:25:08.019Z,12.60
2019-01-29T02:27:36.598Z,11.30
2019-01-29T02:30:19.352Z,11.63
2019-01-29T02:32:47.994Z,11.57
2019-01-29T02:35:16.705Z,12.53
2019-01-29T02:37:45.419Z,12.27
2019-01-29T02:40:22.453Z,11.73
2019-01-29T02:42:51.117Z,12.23
2019-01-29T02:45:20.141Z,12.57
2019-01-29T02:47:48.809Z,11.90
2019-01-29T02:50:18.449Z,12.27
2019-01-29T02:52:47.094Z,12.50
2019-01-29T02:55:16.001Z,12.63
2019-01-29T02:57:44.590Z,11.30
2019-01-29T03:00:25.262Z,11.90
2019-01-29T03:02:54.085Z,11.47
2019-01-29T03:05:23.458Z,11.83
2019-01-29T03:07:52.187Z,11.57
2019-01-29T03:10:22.894Z,11.87
2019-01-29T03:12:51.555Z,11.53
2019-01-29T03:15:26.222Z,11.10
2019-01-29T03:17:54.911Z,11.57
2019-01-29T03:20:23.823Z,10.83
2019-01-29T03:22:52.467Z,11.60
2019-01-29T03:25:21.191Z,11.63
2019-01-29T03:27:49.837Z,10.70
2019-01-29T03:30:21.126Z,11.30
2019-01-29T03:32:49.890Z,12.27
2019-01-29T03:35:18.833Z,11.47
2019-01-29T03:37:47.647Z,10.53
2019-01-29T03:40:19.319Z,10.80
2019-01-29T03:42:48.045Z,10.53
2019-01-29T03:45:17.445Z,9.97
2019-01-29T03:47:46.175Z,10.07
2019-01-29T03:50:17.055Z,10.43
2019-01-29T03:52:45.810Z,11.33
2019-01-29T03:55:14.624Z,10.77
2019-01-29T03:57:43.348Z,10.23
2019-01-29T04:00:20.702Z,9.53
2019-01-29T04:02:49.439Z,9.60
2019-01-29T04:05:18.241Z,10.37
2019-01-29T04:07:46.955Z,10.47
2019-01-29T04:10:17.326Z,10.10
2019-01-29T04:12:46.543Z,9.70
2019-01-29T04:15:22.962Z,9.53
2019-01-29T04:17:54.844Z,10.20
2019-01-29T04:20:23.758Z,9.20
2019-01-29T04:22:52.478Z,10.00
2019-01-29T04:25:21.195Z,8.07
2019-01-29T04:27:49.770Z,9.43
2019-01-29T04:30:22.709Z,9.47
2019-01-29T04:32:51.415Z,9.13
2019-01-29T04:35:20.144Z,9.77
2019-01-29T04:37:48.783Z,9.10
2019-01-29T04:40:19.094Z,8.93
2019-01-29T04:42:48.022Z,8.43
2019-01-29T04:45:17.965Z,8.47
2019-01-29T04:47:46.686Z,8.60
2019-01-29T04:50:18.168Z,8.60
2019-01-29T04:52:46.891Z,8.47
2019-01-29T04:55:17.405Z,8.40
2019-01-29T04:57:46.457Z,8.87
2019-01-29T05:00:23.134Z,8.73
2019-01-29T05:02:51.961Z,8.53
2019-01-29T05:05:21.092Z,8.20
2019-01-29T05:07:49.999Z,7.83
2019-01-29T05:10:20.113Z,8.87
2019-01-29T05:12:48.758Z,9.07
2019-01-29T05:15:19.286Z,8.37
2019-01-29T05:17:47.929Z,8.73
2019-01-29T05:20:18.748Z,8.10
2019-01-29T05:22:47.458Z,8.83
2019-01-29T05:25:17.078Z,8.23
2019-01-29T05:27:45.725Z,8.20
2019-01-29T05:30:17.417Z,8.00
2019-01-29T05:32:46.194Z,8.77
2019-01-29T05:35:15.110Z,8.17
2019-01-29T05:37:43.749Z,8.40
2019-01-29T05:40:15.030Z,8.30
2019-01-29T05:42:43.754Z,8.67
2019-01-29T05:45:14.813Z,9.00
2019-01-29T05:47:43.851Z,8.40
2019-01-29T05:50:14.815Z,8.60
2019-01-29T05:52:43.917Z,9.27
2019-01-29T05:55:33.358Z,8.40
2019-01-29T05:58:01.930Z,8.70
2019-01-29T06:00:32.330Z,9.50
2019-01-29T06:03:01.132Z,8.63
2019-01-29T06:05:29.944Z,9.07
2019-01-29T06:07:58.638Z,8.43
2019-01-29T06:10:27.313Z,9.23
2019-01-29T06:12:56.022Z,8.53
2019-01-29T06:15:25.779Z,9.33
2019-01-29T06:17:54.477Z,8.77
2019-01-29T06:20:28.118Z,9.00
2019-01-29T06:22:56.844Z,9.13
2019-01-29T06:25:25.588Z,8.80
2019-01-29T06:27:54.274Z,9.20
2019-01-29T06:30:25.254Z,8.00
2019-01-29T06:32:54.013Z,9.53
2019-01-29T06:35:22.985Z,8.53
2019-01-29T06:37:51.727Z,8.80
2019-01-29T06:40:22.424Z,9.00
2019-01-29T06:42:51.345Z,8.73
2019-01-29T06:45:22.181Z,8.67
2019-01-29T06:47:51.193Z,9.43
2019-01-29T06:50:22.010Z,9.00
2019-01-29T06:52:50.650Z,8.47
2019-01-29T06:55:21.277Z,8.23
2019-01-29T06:57:55.528Z,8.80
2019-01-29T07:00:22.517Z,7.93
2019-01-29T07:02:51.525Z,8.10
2019-01-29T07:05:20.407Z,8.37
2019-01-29T07:07:49.050Z,7.83
2019-01-29T07:10:20.369Z,7.00
2019-01-29T07:12:49.119Z,7.37
2019-01-29T07:15:40.938Z,8.03
2019-01-29T07:18:11.411Z,7.87
2019-01-29T07:20:40.053Z,7.33
2019-01-29T07:23:08.705Z,7.53
2019-01-29T07:25:37.430Z,7.77
2019-01-29T07:28:06.261Z,7.17
2019-01-29T07:30:34.969Z,7.17
2019-01-29T07:33:03.618Z,7.80
2019-01-29T07:35:32.204Z,6.97
2019-01-29T07:38:00.773Z,8.13
2019-01-29T07:40:29.368Z,7.03
2019-01-29T07:42:58.009Z,7.57
2019-01-29T07:45:26.657Z,6.50
2019-01-29T07:47:55.246Z,7.60
2019-01-29T07:50:24.029Z,7.80
2019-01-29T07:52:52.762Z,6.50
2019-01-29T07:55:21.335Z,7.60
2019-01-29T07:57:49.992Z,7.27
2019-01-29T08:00:18.814Z,7.33
2019-01-29T08:02:47.449Z,6.53
2019-01-29T08:05:16.118Z,7.00
2019-01-29T08:07:44.693Z,6.47
2019-01-29T08:10:17.722Z,6.53
2019-01-29T08:12:46.433Z,6.83
2019-01-29T08:15:19.846Z,6.40
2019-01-29T08:17:48.573Z,6.93
2019-01-29T08:20:18.178Z,6.80
2019-01-29T08:22:46.993Z,6.77
2019-01-29T08:25:15.806Z,7.27
2019-01-29T08:27:44.529Z,6.80
2019-01-29T08:30:18.481Z,7.37
2019-01-29T08:32:47.126Z,7.07
2019-01-29T08:35:17.910Z,6.93
2019-01-29T08:37:46.625Z,7.23
2019-01-29T08:40:16.634Z,7.03
2019-01-29T08:42:45.465Z,5.93
2019-01-29T08:45:19.065Z,6.83
2019-01-29T08:47:48.217Z,7.07
2019-01-29T08:50:22.649Z,6.67
2019-01-29T08:52:51.298Z,6.67
2019-01-29T08:55:20.821Z,6.47
2019-01-29T08:57:49.389Z,6.10
2019-01-29T09:00:21.055Z,6.00
2019-01-29T09:02:49.766Z,6.87
2019-01-29T09:05:18.497Z,6.27
2019-01-29T09:07:47.258Z,6.50
2019-01-29T09:10:17.957Z,5.73
2019-01-29T09:12:46.782Z,5.90
2019-01-29T09:15:18.073Z,6.67
2019-01-29T09:17:46.810Z,6.37
2019-01-29T09:20:17.829Z,5.70
2019-01-29T09:22:46.542Z,6.00
2019-01-29T09:25:21.055Z,5.70
2019-01-29T09:27:45.968Z,4.83
2019-01-29T09:30:21.738Z,4.80
2019-01-29T09:32:50.746Z,4.97
2019-01-29T09:35:19.330Z,4.77
2019-01-29T09:37:48.045Z,4.47
2019-01-29T09:40:19.155Z,4.63
2019-01-29T09:42:47.858Z,4.50
2019-01-29T09:45:18.533Z,4.33
2019-01-29T09:47:47.497Z,4.50
2019-01-29T09:50:18.675Z,4.30
2019-01-29T09:52:47.488Z,3.97
2019-01-29T09:55:18.322Z,4.33
2019-01-29T09:57:47.039Z,4.30
2019-01-29T10:00:30.585Z,4.10
2019-01-29T10:02:59.356Z,3.73
2019-01-29T10:05:28.259Z,3.90
2019-01-29T10:07:56.969Z,3.40
2019-01-29T10:10:25.602Z,3.53
2019-01-29T10:12:54.917Z,3.07
2019-01-29T10:15:28.422Z,3.50
2019-01-29T10:17:57.262Z,3.27
2019-01-29T10:20:26.261Z,3.37
2019-01-29T10:22:54.968Z,3.30
2019-01-29T10:25:23.740Z,3.40
2019-01-29T10:27:52.312Z,2.97
2019-01-29T10:30:23.741Z,2.83
2019-01-29T10:32:52.638Z,3.60
2019-01-29T10:35:23.154Z,3.50
2019-01-29T10:37:51.873Z,2.83
2019-01-29T10:40:23.187Z,3.10
2019-01-29T10:42:52.306Z,3.20
2019-01-29T10:45:23.477Z,3.33
2019-01-29T10:47:52.055Z,3.37
2019-01-29T10:50:23.438Z,3.43
2019-01-29T10:52:52.546Z,3.00
2019-01-29T10:55:21.236Z,3.10
2019-01-29T10:57:50.049Z,2.93
2019-01-29T11:00:21.255Z,2.80
2019-01-29T11:02:50.070Z,3.23
2019-01-29T11:05:20.173Z,2.60
2019-01-29T11:07:48.854Z,2.70
2019-01-29T11:10:19.069Z,2.53
2019-01-29T11:12:47.973Z,2.90
2019-01-29T11:15:36.141Z,2.63
2019-01-29T11:18:07.709Z,2.23
2019-01-29T11:20:36.409Z,2.60
2019-01-29T11:23:05.421Z,2.53
2019-01-29T11:25:34.325Z,2.10
2019-01-29T11:28:03.079Z,2.60
2019-01-29T11:30:32.790Z,2.57
2019-01-29T11:33:01.496Z,2.27
2019-01-29T11:35:30.609Z,2.53
2019-01-29T11:37:59.414Z,2.53
2019-01-29T11:40:32.957Z,2.80
2019-01-29T11:43:02.075Z,2.37
2019-01-29T11:45:45.710Z,2.40
2019-01-29T11:48:14.354Z,2.77
2019-01-29T11:50:42.989Z,2.87
2019-01-29T11:53:12.407Z,2.40
2019-01-29T11:55:41.106Z,2.80
2019-01-29T11:58:09.878Z,2.53
2019-01-29T12:00:40.836Z,2.33
2019-01-29T12:03:09.476Z,2.80
2019-01-29T12:05:38.122Z,2.67
2019-01-29T12:08:07.734Z,2.83
2019-01-29T12:10:36.471Z,2.67
2019-01-29T12:13:05.969Z,3.00
2019-01-29T12:15:34.885Z,2.33
2019-01-29T12:18:04.110Z,2.70
2019-01-29T12:20:32.817Z,2.50
2019-01-29T12:23:01.939Z,2.57
2019-01-29T12:25:30.577Z,2.30
2019-01-29T12:27:59.230Z,2.43
2019-01-29T12:30:29.552Z,2.93
2019-01-29T12:33:00.564Z,2.73
2019-01-29T12:35:29.218Z,2.30
2019-01-29T12:37:57.785Z,2.70
2019-01-29T12:40:26.518Z,2.60
2019-01-29T12:42:55.234Z,2.60
2019-01-29T12:45:24.242Z,2.73
2019-01-29T12:47:52.969Z,2.23
2019-01-29T12:50:30.410Z,2.67
2019-01-29T12:53:01.138Z,2.37
2019-01-29T12:55:29.849Z,2.70
2019-01-29T12:57:58.857Z,2.40
2019-01-29T13:00:29.213Z,2.57
2019-01-29T13:02:57.919Z,2.43
2019-01-29T13:05:26.574Z,2.80
2019-01-29T13:07:55.294Z,2.73
2019-01-29T13:10:25.474Z,2.27
2019-01-29T13:12:54.390Z,2.97
2019-01-29T13:15:31.334Z,2.33
2019-01-29T13:18:00.862Z,2.90
2019-01-29T13:20:29.673Z,2.90
2019-01-29T13:22:58.582Z,2.90
2019-01-29T13:25:27.664Z,3.30
2019-01-29T13:27:56.366Z,3.20
2019-01-29T13:30:35.859Z,2.97
2019-01-29T13:33:06.880Z,3.23
2019-01-29T13:35:37.029Z,3.00
2019-01-29T13:38:06.847Z,2.90
2019-01-29T13:40:35.600Z,2.70
2019-01-29T13:43:06.138Z,2.77
2019-01-29T13:45:34.846Z,3.00
2019-01-29T13:48:03.601Z,2.57
2019-01-29T13:50:37.941Z,3.30
2019-01-29T13:53:07.041Z,3.07
2019-01-29T13:55:35.962Z,3.23
2019-01-29T13:58:06.265Z,3.17
2019-01-29T14:00:37.298Z,2.90
2019-01-29T14:03:07.107Z,3.57
2019-01-29T14:05:35.755Z,3.20
2019-01-29T14:08:04.675Z,3.17
2019-01-29T14:10:33.317Z,3.20
2019-01-29T14:13:01.977Z,3.57
2019-01-29T14:15:44.376Z,3.27
2019-01-29T14:18:13.595Z,3.70
2019-01-29T14:20:42.293Z,3.47
2019-01-29T14:23:10.998Z,3.53
2019-01-29T14:25:39.646Z,3.40
2019-01-29T14:28:08.370Z,3.07
2019-01-29T14:30:37.230Z,2.83
2019-01-29T14:33:06.846Z,3.50
2019-01-29T14:35:35.562Z,3.57
2019-01-29T14:38:16.194Z,2.93
2019-01-29T14:40:44.843Z,3.13
2019-01-29T14:43:19.166Z,3.17
2019-01-29T14:45:47.751Z,3.30
2019-01-29T14:48:16.385Z,3.40
2019-01-29T14:50:44.969Z,3.20
2019-01-29T14:53:13.615Z,3.43
2019-01-29T14:55:45.201Z,2.73
2019-01-29T14:58:13.911Z,3.67
2019-01-29T15:00:42.917Z,3.17
2019-01-29T15:03:11.559Z,3.47
2019-01-29T15:05:40.208Z,3.30
2019-01-29T15:08:09.051Z,3.20
2019-01-29T15:10:37.677Z,3.90
2019-01-29T15:13:06.499Z,3.20
2019-01-29T15:15:39.122Z,3.77
2019-01-29T15:18:21.690Z,3.40
2019-01-29T15:20:50.471Z,3.33
2019-01-29T15:23:19.266Z,3.57
2019-01-29T15:25:47.913Z,3.30
2019-01-29T15:28:16.554Z,3.03
2019-01-29T15:30:45.240Z,2.90
2019-01-29T15:33:13.882Z,3.67
2019-01-29T15:35:42.523Z,3.67
2019-01-29T15:38:11.206Z,3.57
2019-01-29T15:40:39.858Z,3.50
2019-01-29T15:43:08.566Z,3.07
2019-01-29T15:45:37.230Z,3.17
2019-01-29T15:48:06.342Z,3.10
2019-01-29T15:50:36.191Z,2.63
2019-01-29T15:53:06.014Z,3.27
2019-01-29T15:55:34.825Z,5.60
2019-01-29T15:58:03.769Z,4.37
2019-01-29T16:00:33.790Z,3.23
2019-01-29T16:03:02.514Z,3.20
2019-01-29T16:05:40.154Z,7.00
2019-01-29T16:08:13.549Z,5.70
2019-01-29T16:10:43.834Z,3.83
2019-01-29T16:13:12.543Z,6.70
2019-01-29T16:15:42.050Z,3.70
2019-01-29T16:18:11.770Z,4.70
2019-01-29T16:20:40.479Z,3.30
2019-01-29T16:23:09.138Z,3.20
2019-01-29T16:25:38.461Z,3.87
2019-01-29T16:28:07.098Z,3.50
2019-01-29T16:30:39.797Z,3.20
2019-01-29T16:33:08.601Z,3.20
2019-01-29T16:35:42.758Z,3.47
2019-01-29T16:38:11.614Z,3.07
2019-01-29T16:40:42.687Z,3.80
2019-01-29T16:43:11.486Z,3.40
2019-01-29T16:45:40.494Z,3.57
2019-01-29T16:48:10.606Z,3.10
2019-01-29T16:50:39.319Z,3.10
2019-01-29T16:53:09.022Z,3.43
2019-01-29T16:55:38.158Z,4.07
2019-01-29T16:58:07.665Z,4.00
2019-01-29T17:00:38.573Z,4.30
2019-01-29T17:03:07.394Z,3.83
2019-01-29T17:05:36.131Z,3.83
2019-01-29T17:08:05.360Z,3.63
2019-01-29T17:10:34.469Z,3.53
2019-01-29T17:13:03.046Z,3.67
2019-01-29T17:15:36.131Z,3.67
2019-01-29T17:18:06.541Z,3.60
2019-01-29T17:20:40.777Z,3.37
2019-01-29T17:23:10.415Z,3.47
2019-01-29T17:25:39.234Z,3.13
2019-01-29T17:28:08.050Z,3.50
2019-01-29T17:30:38.764Z,3.77
2019-01-29T17:33:08.074Z,3.60
2019-01-29T17:35:38.532Z,3.80
2019-01-29T17:38:07.243Z,3.10
2019-01-29T17:40:35.981Z,3.37
2019-01-29T17:43:05.099Z,3.63
2019-01-29T17:45:36.584Z,3.53
2019-01-29T17:48:05.790Z,3.27
2019-01-29T17:50:39.737Z,3.17
2019-01-29T17:53:08.442Z,3.30
2019-01-29T17:55:38.767Z,3.20
2019-01-29T17:58:08.378Z,3.60
2019-01-29T18:00:38.738Z,3.60
2019-01-29T18:03:07.649Z,3.30
2019-01-29T18:05:36.490Z,3.40
2019-01-29T18:08:05.550Z,3.33
2019-01-29T18:10:34.362Z,3.63
2019-01-29T18:13:03.071Z,3.17
2019-01-29T18:15:32.309Z,3.87
2019-01-29T18:18:00.885Z,3.43
2019-01-29T18:20:29.599Z,3.97
2019-01-29T18:22:58.240Z,3.47
2019-01-29T18:25:26.954Z,3.40
2019-01-29T18:28:01.348Z,3.53
2019-01-29T18:30:28.648Z,3.40
2019-01-29T18:32:57.466Z,3.63
2019-01-29T18:35:26.169Z,3.90
2019-01-29T18:37:54.998Z,3.57
2019-01-29T18:40:32.574Z,3.53
2019-01-29T18:43:01.154Z,3.57
2019-01-29T18:45:29.929Z,3.40
2019-01-29T18:47:58.583Z,3.20
2019-01-29T18:50:27.261Z,3.43
2019-01-29T18:52:56.134Z,3.47
2019-01-29T18:55:24.898Z,2.90
2019-01-29T18:57:53.565Z,3.33
2019-01-29T19:00:26.587Z,3.53
2019-01-29T19:02:55.306Z,3.13
2019-01-29T19:05:25.938Z,3.57
2019-01-29T19:07:54.626Z,3.60
2019-01-29T19:10:24.128Z,4.00
2019-01-29T19:12:53.164Z,3.23
2019-01-29T19:15:26.691Z,3.57
2019-01-29T19:17:55.473Z,3.20
2019-01-29T19:20:26.175Z,3.67
2019-01-29T19:22:55.004Z,3.37
2019-01-29T19:25:23.730Z,3.70
2019-01-29T19:27:52.826Z,3.67
2019-01-29T19:30:23.634Z,3.77
2019-01-29T19:32:52.474Z,3.20
2019-01-29T19:35:21.201Z,3.73
2019-01-29T19:37:49.853Z,3.60
2019-01-29T19:40:19.350Z,4.10
2019-01-29T19:42:48.090Z,3.57
2019-01-29T19:45:19.494Z,3.50
2019-01-29T19:47:48.135Z,3.63
2019-01-29T19:50:22.034Z,3.73
2019-01-29T19:52:51.038Z,4.33
2019-01-29T19:55:19.967Z,3.37
2019-01-29T19:57:48.670Z,3.47
2019-01-29T20:00:28.889Z,4.50
2019-01-29T20:02:57.670Z,4.40
2019-01-29T20:05:26.318Z,3.77
2019-01-29T20:07:55.124Z,3.87
2019-01-29T20:10:24.244Z,3.73
2019-01-29T20:12:52.953Z,4.20
2019-01-29T20:15:24.086Z,4.63
2019-01-29T20:17:54.195Z,3.33
2019-01-29T20:20:25.678Z,4.27
2019-01-29T20:22:54.486Z,3.70
2019-01-29T20:25:23.202Z,3.73
2019-01-29T20:27:53.201Z,4.10
2019-01-29T20:30:24.871Z,4.17
2019-01-29T20:32:53.888Z,4.73
2019-01-29T20:35:22.649Z,4.20
2019-01-29T20:37:51.425Z,4.40
2019-01-29T20:40:22.219Z,4.20
2019-01-29T20:42:51.139Z,4.30
2019-01-29T20:45:19.858Z,4.30
2019-01-29T20:47:52.486Z,4.47
2019-01-29T20:50:21.413Z,4.27
2019-01-29T20:52:50.142Z,4.20
2019-01-29T20:55:18.990Z,4.40
2019-01-29T20:57:47.674Z,3.80
2019-01-29T21:00:22.923Z,4.33
2019-01-29T21:02:51.783Z,4.23
2019-01-29T21:05:20.911Z,4.20
2019-01-29T21:07:49.617Z,4.03
2019-01-29T21:10:20.254Z,3.93
2019-01-29T21:12:48.980Z,3.90
2019-01-29T21:15:19.685Z,3.60
2019-01-29T21:17:48.642Z,4.00
2019-01-29T21:20:19.921Z,3.83
2019-01-29T21:22:48.685Z,3.53
2019-01-29T21:25:17.455Z,3.77
2019-01-29T21:27:46.158Z,4.10
2019-01-29T21:30:20.694Z,3.97
2019-01-29T21:32:49.329Z,3.50
2019-01-29T21:35:18.055Z,3.77
2019-01-29T21:37:46.788Z,3.93
2019-01-29T21:40:16.870Z,3.33
2019-01-29T21:42:45.521Z,3.80
2019-01-29T21:45:19.461Z,3.63
2019-01-29T21:47:48.871Z,3.73
2019-01-29T21:50:20.446Z,3.23
2019-01-29T21:52:49.246Z,3.53
2019-01-29T21:55:18.109Z,3.60
2019-01-29T21:57:46.818Z,3.67
2019-01-29T22:00:24.343Z,3.67
2019-01-29T22:02:52.984Z,3.93
2019-01-29T22:05:21.554Z,3.53
2019-01-29T22:07:50.129Z,3.67
2019-01-29T22:10:18.781Z,4.00
2019-01-29T22:12:47.502Z,3.63
2019-01-29T22:15:21.878Z,3.83
2019-01-29T22:17:50.598Z,3.60
2019-01-29T22:20:26.006Z,3.70
2019-01-29T22:22:54.637Z,3.80
2019-01-29T22:25:24.452Z,4.23
2019-01-29T22:27:53.106Z,3.27
2019-01-29T22:30:27.683Z,3.80
2019-01-29T22:32:56.359Z,4.00
2019-01-29T22:35:25.169Z,4.03
2019-01-29T22:37:53.878Z,3.97
2019-01-29T22:40:27.738Z,4.30
2019-01-29T22:42:56.848Z,4.07
2019-01-29T22:45:25.673Z,3.97
2019-01-29T22:47:54.388Z,3.90
2019-01-29T22:50:31.351Z,4.20
2019-01-29T22:52:59.921Z,3.47
2019-01-29T22:55:28.659Z,3.17
2019-01-29T22:57:57.310Z,3.70
2019-01-29T23:00:54.751Z,3.60
2019-01-29T23:03:26.171Z,3.60
2019-01-29T23:06:12.602Z,3.40
2019-01-29T23:08:41.358Z,3.50
2019-01-29T23:11:10.070Z,3.80
2019-01-29T23:13:38.658Z,3.20
2019-01-29T23:16:07.373Z,3.17
2019-01-29T23:18:35.953Z,3.33
2019-01-29T23:21:04.681Z,3.50
2019-01-29T23:23:33.313Z,3.53
2019-01-29T23:26:02.098Z,4.17
2019-01-29T23:28:30.674Z,4.40
2019-01-29T23:30:59.242Z,4.27
2019-01-29T23:33:27.893Z,4.07
2019-01-29T23:35:56.463Z,4.17
2019-01-29T23:38:25.111Z,4.10
2019-01-29T23:40:53.682Z,4.00
2019-01-29T23:43:22.333Z,4.30
2019-01-29T23:45:50.906Z,4.47
2019-01-29T23:48:19.560Z,4.23
2019-01-29T23:50:48.194Z,4.57
2019-01-29T23:53:16.773Z,4.40
2019-01-29T23:55:45.350Z,4.80
2019-01-29T23:58:13.922Z,4.30
